createdAt,value
2022-11-30T00:00:10.663Z,7.60
2022-11-30T00:02:40.224Z,7.60
2022-11-30T00:05:08.996Z,7.60
2022-11-30T00:07:37.258Z,7.50
2022-11-30T00:10:06.776Z,7.50
2022-11-30T00:12:34.987Z,7.50
2022-11-30T00:15:03.187Z,7.50
2022-11-30T00:17:31.227Z,7.50
2022-11-30T00:20:00.705Z,7.50
2022-11-30T00:22:30.067Z,7.50
2022-11-30T00:24:59.511Z,7.50
2022-11-30T00:27:28.801Z,7.40
2022-11-30T00:29:56.883Z,7.40
2022-11-30T00:32:25.231Z,7.40
2022-11-30T00:34:53.506Z,7.40
2022-11-30T00:37:23.255Z,7.40
2022-11-30T00:39:51.390Z,7.40
2022-11-30T00:42:19.520Z,7.40
2022-11-30T00:44:47.756Z,7.40
2022-11-30T00:47:16.059Z,7.40
2022-11-30T00:49:44.104Z,7.50
2022-11-30T00:52:12.169Z,7.40
2022-11-30T00:54:41.629Z,7.40
2022-11-30T00:57:09.652Z,7.40
2022-11-30T00:59:37.667Z,7.40
2022-11-30T01:02:05.801Z,7.30
2022-11-30T01:04:33.888Z,7.30
2022-11-30T01:07:01.953Z,7.30
2022-11-30T01:09:30.024Z,7.30
2022-11-30T01:11:59.483Z,7.30
2022-11-30T01:14:27.672Z,7.30
2022-11-30T01:16:56.488Z,7.30
2022-11-30T01:19:25.243Z,7.20
2022-11-30T01:21:53.255Z,7.30
2022-11-30T01:24:21.327Z,7.30
2022-11-30T01:26:49.413Z,7.20
2022-11-30T01:29:18.816Z,7.20
2022-11-30T01:31:46.885Z,7.20
2022-11-30T01:34:14.966Z,7.20
2022-11-30T01:36:44.006Z,7.20
2022-11-30T01:39:12.243Z,7.20
2022-11-30T01:41:40.335Z,7.20
2022-11-30T01:44:56.943Z,7.30
2022-11-30T01:47:31.654Z,7.20
2022-11-30T01:50:04.948Z,7.10
2022-11-30T01:52:36.684Z,7.20
2022-11-30T01:55:13.409Z,7.10
2022-11-30T01:57:45.959Z,7.20
2022-11-30T02:00:16.061Z,7.20
2022-11-30T02:02:53.035Z,7.20
2022-11-30T02:05:22.254Z,7.10
2022-11-30T02:07:50.447Z,7.10
2022-11-30T02:10:22.050Z,7.10
2022-11-30T02:13:17.055Z,7.00
2022-11-30T02:15:54.680Z,7.00
2022-11-30T02:18:30.313Z,7.00
2022-11-30T02:21:07.433Z,6.90
2022-11-30T02:24:21.710Z,6.90
2022-11-30T02:27:01.171Z,6.90
2022-11-30T02:29:35.068Z,6.90
2022-11-30T02:32:09.321Z,6.90
2022-11-30T02:34:41.929Z,6.80
2022-11-30T02:37:13.387Z,6.90
2022-11-30T02:39:41.460Z,6.90
2022-11-30T02:42:12.781Z,6.90
2022-11-30T02:44:44.551Z,6.90
2022-11-30T02:47:20.184Z,6.80
2022-11-30T02:49:54.938Z,6.80
2022-11-30T02:52:26.198Z,6.90
2022-11-30T02:54:54.657Z,6.90
2022-11-30T02:57:22.708Z,6.90
2022-11-30T02:59:52.249Z,6.90
2022-11-30T03:07:41.088Z,6.80
2022-11-30T03:10:10.964Z,6.90
2022-11-30T03:12:39.253Z,6.80
2022-11-30T03:15:09.302Z,6.90
2022-11-30T03:17:37.310Z,6.80
2022-11-30T03:20:06.350Z,6.90
2022-11-30T03:22:34.426Z,6.90
2022-11-30T03:25:02.532Z,6.90
2022-11-30T03:27:30.556Z,6.90
2022-11-30T03:29:58.559Z,6.80
2022-11-30T03:32:27.984Z,6.80
2022-11-30T03:34:56.035Z,6.80
2022-11-30T03:37:24.172Z,6.80
2022-11-30T03:39:57.728Z,6.80
2022-11-30T03:42:26.370Z,6.90
2022-11-30T03:44:54.442Z,6.80
2022-11-30T03:47:22.467Z,6.80
2022-11-30T03:49:51.874Z,6.80
2022-11-30T03:52:19.912Z,6.80
2022-11-30T03:54:48.158Z,6.80
2022-11-30T03:57:16.424Z,6.80
2022-11-30T03:59:44.479Z,6.80
2022-11-30T04:02:12.592Z,6.80
2022-11-30T04:04:40.664Z,6.80
2022-11-30T04:11:30.857Z,6.70
2022-11-30T04:13:58.916Z,6.60
2022-11-30T04:16:26.995Z,6.60
2022-11-30T04:18:55.134Z,6.50
2022-11-30T04:21:23.194Z,6.50
2022-11-30T04:23:51.173Z,6.50
2022-11-30T04:26:19.549Z,6.50
2022-11-30T04:28:48.962Z,6.40
2022-11-30T04:31:17.012Z,6.30
2022-11-30T04:33:45.139Z,6.20
2022-11-30T04:36:19.434Z,6.10
2022-11-30T04:38:48.079Z,5.90
2022-11-30T04:41:16.381Z,5.90
2022-11-30T04:43:44.510Z,5.90
2022-11-30T04:46:14.068Z,5.80
2022-11-30T04:48:42.156Z,5.70
2022-11-30T04:51:10.581Z,5.60
2022-11-30T04:53:39.359Z,5.50
2022-11-30T04:56:08.306Z,5.40
2022-11-30T04:58:36.752Z,5.40
2022-11-30T05:01:04.795Z,5.30
2022-11-30T05:03:34.233Z,5.20
2022-11-30T05:06:02.304Z,5.20
2022-11-30T05:08:30.479Z,5.10
2022-11-30T05:10:58.705Z,5.10
2022-11-30T05:13:27.312Z,5.10
2022-11-30T05:15:55.679Z,5.00
2022-11-30T05:18:23.969Z,5.00
2022-11-30T05:20:54.150Z,5.00
2022-11-30T05:23:22.618Z,4.90
2022-11-30T05:25:51.909Z,4.90
2022-11-30T05:28:20.195Z,4.80
2022-11-30T05:30:48.294Z,4.80
2022-11-30T05:33:16.309Z,4.80
2022-11-30T05:35:44.680Z,4.80
2022-11-30T05:38:14.107Z,4.80
2022-11-30T05:40:42.165Z,4.70
2022-11-30T05:43:10.747Z,4.60
2022-11-30T05:45:38.769Z,4.50
2022-11-30T05:48:07.547Z,4.50
2022-11-30T05:50:35.593Z,4.50
2022-11-30T05:53:03.640Z,4.40
2022-11-30T05:55:33.243Z,4.40
2022-11-30T05:58:01.988Z,4.40
2022-11-30T06:00:30.041Z,4.40
2022-11-30T06:02:58.697Z,4.40
2022-11-30T06:05:27.435Z,4.30
2022-11-30T06:07:55.684Z,4.20
2022-11-30T06:10:25.367Z,4.20
2022-11-30T06:12:54.843Z,4.20
2022-11-30T06:15:25.008Z,4.20
2022-11-30T06:17:53.311Z,4.20
2022-11-30T06:20:21.360Z,4.10
2022-11-30T06:22:49.400Z,4.10
2022-11-30T06:25:17.473Z,4.10
2022-11-30T06:27:45.497Z,4.00
2022-11-30T06:30:16.166Z,4.00
2022-11-30T06:32:46.436Z,3.90
2022-11-30T06:35:14.737Z,3.90
2022-11-30T06:37:43.099Z,3.80
2022-11-30T06:40:13.257Z,3.70
2022-11-30T06:42:41.813Z,3.70
2022-11-30T06:45:10.793Z,3.80
2022-11-30T06:47:40.223Z,3.80
2022-11-30T06:50:12.403Z,3.80
2022-11-30T06:52:40.497Z,3.80
2022-11-30T06:55:09.378Z,3.80
2022-11-30T06:57:37.451Z,3.70
2022-11-30T07:00:06.470Z,3.70
2022-11-30T07:02:34.592Z,3.60
2022-11-30T07:05:04.042Z,3.60
2022-11-30T07:07:32.369Z,3.60
2022-11-30T07:10:00.653Z,3.50
2022-11-30T07:12:28.717Z,3.50
2022-11-30T07:14:56.739Z,3.50
2022-11-30T07:17:24.882Z,3.50
2022-11-30T07:19:52.910Z,3.50
2022-11-30T07:22:22.314Z,3.50
2022-11-30T07:25:07.870Z,3.60
2022-11-30T07:27:36.045Z,3.70
2022-11-30T07:30:04.486Z,3.80
2022-11-30T07:32:32.563Z,3.80
2022-11-30T07:35:00.605Z,3.90
2022-11-30T07:37:30.020Z,4.00
2022-11-30T07:39:58.231Z,4.00
2022-11-30T07:42:26.285Z,4.00
2022-11-30T07:44:58.708Z,4.10
2022-11-30T07:47:27.341Z,4.10
2022-11-30T07:49:55.407Z,4.20
2022-11-30T07:52:23.458Z,4.20
2022-11-30T07:54:53.737Z,4.20
2022-11-30T07:57:21.868Z,4.30
2022-11-30T07:59:50.261Z,4.30
2022-11-30T08:02:18.683Z,4.30
2022-11-30T08:04:47.291Z,4.40
2022-11-30T08:07:15.826Z,4.50
2022-11-30T08:09:45.144Z,4.50
2022-11-30T08:12:14.577Z,4.60
2022-11-30T08:15:17.502Z,4.70
2022-11-30T08:17:30.632Z,4.80
2022-11-30T08:19:58.635Z,5.00
2022-11-30T08:22:26.681Z,5.10
2022-11-30T08:24:54.756Z,5.20
2022-11-30T08:27:24.129Z,5.30
2022-11-30T08:29:53.081Z,5.40
2022-11-30T08:32:21.407Z,5.50
2022-11-30T08:34:49.679Z,5.70
2022-11-30T08:37:18.004Z,5.80
2022-11-30T08:39:46.038Z,5.70
2022-11-30T08:42:14.090Z,5.80
2022-11-30T08:44:43.508Z,5.80
2022-11-30T08:47:11.629Z,5.80
2022-11-30T08:49:39.628Z,5.80
2022-11-30T08:52:22.921Z,5.70
2022-11-30T08:54:51.415Z,5.70
2022-11-30T08:57:21.613Z,5.70
2022-11-30T08:59:51.115Z,5.70
2022-11-30T09:02:20.319Z,5.70
2022-11-30T09:04:51.257Z,5.60
2022-11-30T09:07:19.909Z,5.60
2022-11-30T09:09:48.195Z,5.70
2022-11-30T09:12:16.242Z,5.70
2022-11-30T09:14:45.623Z,5.70
2022-11-30T09:17:15.750Z,5.80
2022-11-30T09:19:46.549Z,5.90
2022-11-30T09:22:14.733Z,6.00
2022-11-30T09:24:42.709Z,5.90
2022-11-30T09:27:10.847Z,5.90
2022-11-30T09:29:38.950Z,5.90
2022-11-30T09:32:07.632Z,6.00
2022-11-30T09:34:37.060Z,6.00
2022-11-30T09:37:05.119Z,6.10
2022-11-30T09:39:33.222Z,6.10
2022-11-30T09:42:27.580Z,6.10
2022-11-30T09:45:02.892Z,6.10
2022-11-30T09:47:45.835Z,6.20
2022-11-30T09:50:19.688Z,6.30
2022-11-30T09:52:52.317Z,6.40
2022-11-30T09:55:27.679Z,6.40
2022-11-30T09:57:57.799Z,6.50
2022-11-30T10:00:26.617Z,6.50
2022-11-30T10:02:57.610Z,6.60
2022-11-30T10:05:35.451Z,6.70
2022-11-30T10:08:24.603Z,6.80
2022-11-30T10:11:03.902Z,6.80
2022-11-30T10:13:49.428Z,6.80
2022-11-30T10:16:27.807Z,6.80
2022-11-30T10:19:03.176Z,6.70
2022-11-30T10:21:43.335Z,6.80
2022-11-30T10:24:22.547Z,6.90
2022-11-30T10:26:55.463Z,6.80
2022-11-30T10:29:30.653Z,6.80
2022-11-30T10:32:01.409Z,6.80
2022-11-30T10:34:34.507Z,6.80
2022-11-30T10:37:12.582Z,6.90
2022-11-30T10:39:45.443Z,6.80
2022-11-30T10:42:18.743Z,6.80
2022-11-30T10:44:54.208Z,6.80
2022-11-30T10:47:26.397Z,6.70
2022-11-30T10:49:54.651Z,6.60
2022-11-30T10:52:28.130Z,6.60
2022-11-30T10:55:03.697Z,6.60
2022-11-30T10:57:33.546Z,6.70
2022-11-30T11:00:06.512Z,6.70
2022-11-30T11:02:41.314Z,6.70
2022-11-30T11:05:15.577Z,6.70
2022-11-30T11:07:52.161Z,6.70
2022-11-30T11:10:22.691Z,6.70
2022-11-30T11:12:52.712Z,6.80
2022-11-30T11:15:23.075Z,6.80
2022-11-30T11:17:51.687Z,6.80
2022-11-30T11:20:35.733Z,6.80
2022-11-30T11:23:05.622Z,6.80
2022-11-30T11:25:36.198Z,6.80
2022-11-30T11:28:13.707Z,6.90
2022-11-30T11:30:42.262Z,6.90
2022-11-30T11:33:21.652Z,6.90
2022-11-30T11:35:51.134Z,6.90
2022-11-30T11:38:29.767Z,7.00
2022-11-30T11:41:01.226Z,7.00
2022-11-30T11:43:31.373Z,7.10
2022-11-30T11:46:03.978Z,7.10
2022-11-30T11:48:36.208Z,7.10
2022-11-30T11:51:08.010Z,7.20
2022-11-30T11:53:48.713Z,7.30
2022-11-30T11:56:26.271Z,7.40
2022-11-30T11:58:59.773Z,7.50
2022-11-30T12:01:41.735Z,7.60
2022-11-30T12:04:35.190Z,7.80
2022-11-30T12:07:15.051Z,7.90
2022-11-30T12:09:58.311Z,7.90
2022-11-30T12:12:26.376Z,7.90
2022-11-30T12:14:56.157Z,7.90
2022-11-30T12:17:39.859Z,7.90
2022-11-30T12:20:18.552Z,7.90
2022-11-30T12:23:03.065Z,7.90
2022-11-30T12:25:37.576Z,8.00
2022-11-30T12:28:18.263Z,7.90
2022-11-30T12:30:58.002Z,8.10
2022-11-30T12:33:36.105Z,8.10
2022-11-30T12:36:14.307Z,8.10
2022-11-30T12:38:49.292Z,8.10
2022-11-30T12:41:39.392Z,8.00
2022-11-30T12:44:18.226Z,8.00
2022-11-30T12:46:55.002Z,8.10
2022-11-30T12:49:36.062Z,8.10
2022-11-30T12:52:14.004Z,8.10
2022-11-30T12:54:50.890Z,8.10
2022-11-30T12:57:27.085Z,8.10
2022-11-30T13:00:07.015Z,8.20
2022-11-30T13:03:02.767Z,8.30
2022-11-30T13:05:36.368Z,8.20
2022-11-30T13:08:13.143Z,8.10
2022-11-30T13:10:45.583Z,8.10
2022-11-30T13:13:18.531Z,8.10
2022-11-30T13:15:49.741Z,8.10
2022-11-30T13:18:21.157Z,8.00
2022-11-30T13:20:54.971Z,7.90
2022-11-30T13:23:31.766Z,7.90
2022-11-30T13:26:08.292Z,7.90
2022-11-30T13:28:50.680Z,7.80
2022-11-30T13:31:23.409Z,7.80
2022-11-30T13:33:59.207Z,7.90
2022-11-30T13:36:32.974Z,7.80
2022-11-30T13:39:22.500Z,7.70
2022-11-30T13:41:54.754Z,7.70
2022-11-30T13:44:32.172Z,7.70
2022-11-30T13:47:01.742Z,7.70
2022-11-30T13:49:31.813Z,7.70
2022-11-30T13:52:25.014Z,7.60
2022-11-30T13:54:51.133Z,7.70
2022-11-30T13:57:52.431Z,7.60
2022-11-30T14:00:48.179Z,7.60
2022-11-30T14:03:27.737Z,7.60
2022-11-30T14:05:56.702Z,7.60
2022-11-30T14:08:39.825Z,7.70
2022-11-30T14:11:37.237Z,7.60
2022-11-30T14:14:45.852Z,7.60
2022-11-30T14:17:22.385Z,7.50
2022-11-30T14:19:53.001Z,7.50
2022-11-30T14:22:21.952Z,7.40
2022-11-30T14:24:51.401Z,7.40
2022-11-30T14:27:23.474Z,7.40
2022-11-30T14:29:54.322Z,7.40
2022-11-30T14:32:35.016Z,7.40
2022-11-30T14:35:09.182Z,7.40
2022-11-30T14:37:43.351Z,7.40
2022-11-30T14:40:19.138Z,7.40
2022-11-30T14:42:51.284Z,7.40
2022-11-30T14:45:25.407Z,7.40
2022-11-30T14:48:05.231Z,7.40
2022-11-30T14:50:34.010Z,7.40
2022-11-30T14:53:15.516Z,7.40
2022-11-30T14:55:51.192Z,7.40
2022-11-30T14:58:26.015Z,7.30
2022-11-30T15:00:54.984Z,7.40
2022-11-30T15:03:28.524Z,7.40
2022-11-30T15:05:59.233Z,7.40
2022-11-30T15:08:33.840Z,7.40
2022-11-30T15:11:05.766Z,7.40
2022-11-30T15:13:34.655Z,7.40
2022-11-30T15:16:02.686Z,7.40
2022-11-30T15:18:32.115Z,7.30
2022-11-30T15:21:04.548Z,7.30
2022-11-30T15:23:32.737Z,7.20
2022-11-30T15:26:04.450Z,7.30
2022-11-30T15:28:35.260Z,7.20
2022-11-30T15:31:08.970Z,7.30
2022-11-30T15:33:44.546Z,7.30
2022-11-30T15:36:28.013Z,7.30
2022-11-30T15:39:03.758Z,7.20
2022-11-30T15:41:33.036Z,7.20
2022-11-30T15:44:02.081Z,7.20
2022-11-30T15:46:33.021Z,7.20
2022-11-30T15:49:17.088Z,7.20
2022-11-30T15:51:46.970Z,7.20
2022-11-30T15:54:15.524Z,7.20
2022-11-30T15:56:56.677Z,7.20
2022-11-30T15:59:26.361Z,7.20
2022-11-30T16:02:04.839Z,7.20
2022-11-30T16:05:02.724Z,7.20
2022-11-30T16:07:33.955Z,7.10
2022-11-30T16:10:05.618Z,7.20
2022-11-30T16:12:34.009Z,7.10
2022-11-30T16:15:02.384Z,7.20
2022-11-30T16:17:30.588Z,7.10
2022-11-30T16:19:58.774Z,7.20
2022-11-30T16:22:26.806Z,7.10
2022-11-30T16:24:56.270Z,7.20
2022-11-30T16:27:24.320Z,7.10
2022-11-30T16:29:53.081Z,7.10
2022-11-30T16:32:21.253Z,7.10
2022-11-30T16:34:51.410Z,7.10
2022-11-30T16:37:19.781Z,7.10
2022-11-30T16:39:48.592Z,7.10
2022-11-30T16:42:18.283Z,7.00
2022-11-30T16:44:46.409Z,7.00
2022-11-30T16:47:14.632Z,7.00
2022-11-30T16:49:42.857Z,7.10
2022-11-30T16:52:16.569Z,7.00
2022-11-30T16:54:44.730Z,7.00
2022-11-30T16:57:12.740Z,7.00
2022-11-30T16:59:42.357Z,7.00
2022-11-30T17:02:20.730Z,7.00
2022-11-30T17:04:49.144Z,7.00
2022-11-30T17:07:17.525Z,7.00
2022-11-30T17:09:45.675Z,7.00
2022-11-30T17:12:13.864Z,7.00
2022-11-30T17:14:43.309Z,7.00
2022-11-30T17:17:11.609Z,7.00
2022-11-30T17:19:39.892Z,7.00
2022-11-30T17:22:08.150Z,7.00
2022-11-30T17:24:36.270Z,7.00
2022-11-30T17:27:05.778Z,6.90
2022-11-30T17:29:34.000Z,7.00
2022-11-30T17:32:06.054Z,6.90
2022-11-30T17:34:34.276Z,6.90
2022-11-30T17:37:02.466Z,7.00
2022-11-30T17:39:30.733Z,7.00
2022-11-30T17:41:58.853Z,7.00
2022-11-30T17:44:26.935Z,6.90
2022-11-30T17:46:54.977Z,6.90
2022-11-30T17:49:24.378Z,6.90
2022-11-30T17:51:52.563Z,6.90
2022-11-30T17:54:20.717Z,6.90
2022-11-30T17:56:48.804Z,6.90
2022-11-30T17:59:16.811Z,6.90
2022-11-30T18:01:44.936Z,6.90
2022-11-30T18:04:13.548Z,6.90
2022-11-30T18:06:42.954Z,6.90
2022-11-30T18:09:11.542Z,6.90
2022-11-30T18:11:39.894Z,6.80
2022-11-30T18:14:07.921Z,6.80
2022-11-30T18:16:38.127Z,6.80
2022-11-30T18:19:12.493Z,6.80
2022-11-30T18:21:43.799Z,6.80
2022-11-30T18:24:12.793Z,6.80
2022-11-30T18:26:41.484Z,6.80
2022-11-30T18:29:11.591Z,6.80
2022-11-30T18:31:39.745Z,6.80
2022-11-30T18:34:08.541Z,6.80
2022-11-30T18:36:36.626Z,6.80
2022-11-30T18:39:06.124Z,6.70
2022-11-30T18:41:34.196Z,6.80
2022-11-30T18:44:02.243Z,6.80
2022-11-30T18:46:30.808Z,6.80
2022-11-30T18:48:59.502Z,6.80
2022-11-30T18:51:29.383Z,6.80
2022-11-30T18:53:59.429Z,6.80
2022-11-30T18:56:31.727Z,6.80
2022-11-30T18:59:02.157Z,6.80
2022-11-30T19:01:31.638Z,6.80
2022-11-30T19:04:01.674Z,6.90
2022-11-30T19:06:33.132Z,6.80
2022-11-30T19:09:03.424Z,6.70
2022-11-30T19:11:34.315Z,6.70
2022-11-30T19:14:03.052Z,6.70
2022-11-30T19:16:33.242Z,6.80
2022-11-30T19:19:03.130Z,6.80
2022-11-30T19:21:31.179Z,6.70
2022-11-30T19:23:59.820Z,6.70
2022-11-30T19:26:28.714Z,6.70
2022-11-30T19:28:58.781Z,6.70
2022-11-30T19:31:27.531Z,6.70
2022-11-30T19:33:57.090Z,6.70
2022-11-30T19:36:27.026Z,6.70
2022-11-30T19:38:55.224Z,6.70
2022-11-30T19:41:23.723Z,6.70
2022-11-30T19:44:02.851Z,6.70
2022-11-30T19:46:33.068Z,6.70
2022-11-30T19:49:02.304Z,6.60
2022-11-30T19:51:31.267Z,6.60
2022-11-30T19:54:00.308Z,6.60
2022-11-30T19:56:30.086Z,6.60
2022-11-30T19:59:05.204Z,6.60
2022-11-30T20:01:35.194Z,6.50
2022-11-30T20:04:04.494Z,6.60
2022-11-30T20:06:34.110Z,6.50
2022-11-30T20:09:02.328Z,6.50
2022-11-30T20:11:30.727Z,6.60
2022-11-30T20:14:00.428Z,6.60
2022-11-30T20:16:29.527Z,6.60
2022-11-30T20:19:00.766Z,6.50
2022-11-30T20:21:31.493Z,6.60
2022-11-30T20:24:01.469Z,6.50
2022-11-30T20:26:31.384Z,6.50
2022-11-30T20:29:02.163Z,6.50
2022-11-30T20:31:31.572Z,6.50
2022-11-30T20:34:00.136Z,6.50
2022-11-30T20:36:28.645Z,6.60
2022-11-30T20:38:56.781Z,6.50
2022-11-30T20:41:25.610Z,6.50
2022-11-30T20:43:54.408Z,6.50
2022-11-30T20:46:25.617Z,6.40
2022-11-30T20:48:54.024Z,6.50
2022-11-30T20:51:32.730Z,6.40
2022-11-30T20:54:03.086Z,6.40
2022-11-30T20:56:31.490Z,6.40
2022-11-30T20:59:02.676Z,6.40
2022-11-30T21:01:32.160Z,6.40
2022-11-30T21:04:00.893Z,6.30
2022-11-30T21:06:29.892Z,6.30
2022-11-30T21:08:57.983Z,6.30
2022-11-30T21:11:26.588Z,6.30
2022-11-30T21:13:55.312Z,6.30
2022-11-30T21:16:28.070Z,6.30
2022-11-30T21:18:59.117Z,6.20
2022-11-30T21:21:30.541Z,6.20
2022-11-30T21:24:00.377Z,6.20
2022-11-30T21:26:30.958Z,6.20
2022-11-30T21:29:01.762Z,6.30
2022-11-30T21:31:30.941Z,6.20
2022-11-30T21:34:00.649Z,6.30
2022-11-30T21:36:28.863Z,6.20
2022-11-30T21:39:04.444Z,6.20
2022-11-30T21:41:33.014Z,6.20
2022-11-30T21:44:01.091Z,6.30
2022-11-30T21:46:29.821Z,6.30
2022-11-30T21:48:57.954Z,6.30
2022-11-30T21:51:29.438Z,6.30
2022-11-30T21:53:59.973Z,6.30
2022-11-30T21:56:30.051Z,6.30
2022-11-30T21:58:58.791Z,6.20
2022-11-30T22:01:29.544Z,6.20
2022-11-30T22:03:59.081Z,6.20
2022-11-30T22:06:30.016Z,6.20
2022-11-30T22:09:02.752Z,6.20
2022-11-30T22:11:31.997Z,6.20
2022-11-30T22:14:00.104Z,6.20
2022-11-30T22:16:34.149Z,6.20
2022-11-30T22:19:05.338Z,6.20
2022-11-30T22:21:35.543Z,6.20
2022-11-30T22:24:05.637Z,6.10
2022-11-30T22:26:35.680Z,6.10
2022-11-30T22:29:06.579Z,6.10
2022-11-30T22:31:36.574Z,6.10
2022-11-30T22:34:05.253Z,6.10
2022-11-30T22:36:37.007Z,6.10
2022-11-30T22:39:07.761Z,6.00
2022-11-30T22:41:35.795Z,6.00
2022-11-30T22:44:04.474Z,6.00
2022-11-30T22:46:34.288Z,6.00
2022-11-30T22:49:04.890Z,6.00
2022-11-30T22:51:36.092Z,6.00
2022-11-30T22:54:04.493Z,6.00
2022-11-30T22:56:34.368Z,6.00
2022-11-30T22:59:03.034Z,5.90
2022-11-30T23:01:33.047Z,5.90
2022-11-30T23:04:03.669Z,5.90
2022-11-30T23:06:31.757Z,6.00
2022-11-30T23:09:01.412Z,6.00
2022-11-30T23:11:30.163Z,6.00
2022-11-30T23:13:58.725Z,6.00
2022-11-30T23:16:27.120Z,5.90
2022-11-30T23:18:57.224Z,5.90
2022-11-30T23:21:28.333Z,5.90
2022-11-30T23:23:59.423Z,6.00
2022-11-30T23:26:30.615Z,5.90
2022-11-30T23:29:01.501Z,5.90
2022-11-30T23:31:32.653Z,5.90
2022-11-30T23:34:03.250Z,6.00
2022-11-30T23:36:31.298Z,6.00
2022-11-30T23:39:01.564Z,6.10
2022-11-30T23:41:30.994Z,6.00
2022-11-30T23:43:59.129Z,6.00
2022-11-30T23:46:27.391Z,5.90
2022-11-30T23:48:56.014Z,6.00
2022-11-30T23:51:24.703Z,6.00
2022-11-30T23:53:52.915Z,6.00
2022-11-30T23:56:23.264Z,6.00
2022-11-30T23:58:52.943Z,5.90
